createdAt,value
2023-03-07T00:00:47.595Z,42.70
2023-03-07T00:03:16.296Z,39.40
2023-03-07T00:05:43.451Z,37.33
2023-03-07T00:08:10.799Z,47.07
2023-03-07T00:10:37.737Z,39.77
2023-03-07T00:13:04.664Z,31.47
2023-03-07T00:15:31.475Z,27.47
2023-03-07T00:17:58.872Z,42.50
2023-03-07T00:20:25.591Z,49.00
2023-03-07T00:22:52.355Z,47.30
2023-03-07T00:25:19.143Z,39.37
2023-03-07T00:27:45.848Z,44.30
2023-03-07T00:30:12.677Z,46.57
2023-03-07T00:32:39.535Z,49.60
2023-03-07T00:35:06.912Z,42.37
2023-03-07T00:37:33.699Z,52.70
2023-03-07T00:40:00.491Z,45.93
2023-03-07T00:42:27.214Z,44.30
2023-03-07T00:44:53.967Z,51.60
2023-03-07T00:47:20.739Z,53.53
2023-03-07T00:49:47.456Z,49.07
2023-03-07T00:52:14.260Z,52.20
2023-03-07T00:54:40.984Z,55.27
2023-03-07T00:57:07.733Z,47.33
2023-03-07T00:59:34.492Z,51.90
2023-03-07T01:02:01.194Z,58.60
2023-03-07T01:04:28.002Z,49.47
2023-03-07T01:06:54.733Z,46.20
2023-03-07T01:09:21.646Z,51.83
2023-03-07T01:11:49.799Z,43.80
2023-03-07T01:14:16.500Z,62.70
2023-03-07T01:16:43.704Z,62.03
2023-03-07T01:19:12.708Z,59.50
2023-03-07T01:21:41.212Z,55.17
2023-03-07T01:24:12.601Z,57.27
2023-03-07T01:26:39.343Z,58.27
2023-03-07T01:29:08.162Z,63.87
2023-03-07T01:31:35.470Z,64.27
2023-03-07T01:34:03.336Z,68.77
2023-03-07T01:36:33.301Z,50.50
2023-03-07T01:39:06.873Z,60.40
2023-03-07T01:41:36.053Z,62.80
2023-03-07T01:44:05.973Z,60.20
2023-03-07T01:46:44.997Z,52.73
2023-03-07T01:49:38.997Z,62.40
2023-03-07T01:52:07.828Z,59.80
2023-03-07T01:54:37.706Z,60.40
2023-03-07T01:57:05.103Z,66.03
2023-03-07T01:59:35.462Z,61.63
2023-03-07T02:02:09.042Z,68.30
2023-03-07T02:04:51.025Z,64.83
2023-03-07T02:07:21.080Z,69.40
2023-03-07T02:09:49.774Z,67.73
2023-03-07T02:12:16.661Z,67.53
2023-03-07T02:14:45.730Z,60.43
2023-03-07T02:17:13.112Z,58.40
2023-03-07T02:19:59.305Z,62.97
2023-03-07T02:22:27.216Z,60.10
2023-03-07T02:25:23.429Z,69.53
2023-03-07T02:27:53.172Z,58.10
2023-03-07T02:30:20.221Z,59.83
2023-03-07T02:32:46.927Z,63.90
2023-03-07T02:35:23.718Z,65.07
2023-03-07T02:37:55.191Z,66.63
2023-03-07T02:40:25.011Z,61.03
2023-03-07T02:42:54.740Z,58.57
2023-03-07T02:45:21.609Z,64.67
2023-03-07T02:47:48.342Z,69.17
2023-03-07T02:50:15.953Z,70.93
2023-03-07T02:52:42.821Z,79.37
2023-03-07T02:55:10.249Z,73.90
2023-03-07T02:57:37.051Z,71.10
2023-03-07T03:00:08.073Z,89.07
2023-03-07T03:02:35.453Z,74.37
2023-03-07T03:05:02.330Z,74.20
2023-03-07T03:07:29.102Z,79.53
2023-03-07T03:09:55.945Z,109.30
2023-03-07T03:12:22.684Z,101.17
2023-03-07T03:14:49.481Z,106.83
2023-03-07T03:17:16.868Z,71.50
2023-03-07T03:19:43.632Z,81.17
2023-03-07T03:22:10.339Z,84.97
2023-03-07T03:24:41.795Z,73.47
2023-03-07T03:27:09.522Z,74.40
2023-03-07T03:29:36.346Z,87.70
2023-03-07T03:32:03.505Z,80.90
2023-03-07T03:34:31.529Z,79.90
2023-03-07T03:36:58.279Z,63.23
2023-03-07T03:39:25.085Z,72.27
2023-03-07T03:41:51.853Z,70.40
2023-03-07T03:44:18.539Z,72.70
2023-03-07T03:46:45.362Z,69.30
2023-03-07T03:49:13.586Z,64.37
2023-03-07T03:51:40.316Z,64.13
2023-03-07T03:54:07.052Z,71.90
2023-03-07T03:56:33.804Z,81.73
2023-03-07T03:59:00.547Z,68.43
2023-03-07T04:01:28.559Z,87.07
2023-03-07T04:03:55.795Z,80.43
2023-03-07T04:06:25.724Z,62.00
2023-03-07T04:08:53.971Z,49.57
2023-03-07T04:11:22.406Z,98.80
2023-03-07T04:13:49.785Z,75.53
2023-03-07T04:16:18.016Z,86.50
2023-03-07T04:18:45.437Z,80.73
2023-03-07T04:21:13.034Z,114.57
2023-03-07T04:23:39.969Z,90.83
2023-03-07T04:26:08.151Z,53.53
2023-03-07T04:28:46.546Z,66.27
2023-03-07T04:31:25.125Z,50.00
2023-03-07T04:33:52.897Z,59.73
2023-03-07T04:36:20.471Z,83.17
2023-03-07T04:38:48.487Z,79.87
2023-03-07T04:41:18.057Z,70.10
2023-03-07T04:43:45.035Z,67.00
2023-03-07T04:46:14.154Z,53.00
2023-03-07T04:48:41.432Z,52.73
2023-03-07T04:51:08.411Z,49.80
2023-03-07T04:53:35.286Z,64.67
2023-03-07T04:56:04.119Z,50.80
2023-03-07T04:58:31.805Z,58.23
2023-03-07T05:01:00.478Z,64.43
2023-03-07T05:03:27.895Z,54.30
2023-03-07T05:05:55.087Z,55.47
2023-03-07T05:08:22.862Z,50.73
2023-03-07T05:10:49.787Z,56.70
2023-03-07T05:13:16.662Z,63.70
2023-03-07T05:15:43.372Z,45.30
2023-03-07T05:18:10.151Z,44.30
2023-03-07T05:20:36.881Z,50.80
2023-03-07T05:23:03.604Z,42.40
2023-03-07T05:25:30.315Z,50.50
2023-03-07T05:27:57.478Z,45.23
2023-03-07T05:30:24.219Z,45.70
2023-03-07T05:32:51.455Z,40.50
2023-03-07T05:35:18.460Z,51.20
2023-03-07T05:37:45.206Z,41.13
2023-03-07T05:40:13.077Z,46.77
2023-03-07T05:42:39.842Z,45.37
2023-03-07T05:45:07.428Z,47.53
2023-03-07T05:47:34.179Z,45.63
2023-03-07T05:50:00.882Z,52.60
2023-03-07T05:52:28.997Z,49.20
2023-03-07T05:54:55.828Z,42.67
2023-03-07T05:57:22.995Z,38.63
2023-03-07T05:59:49.788Z,40.50
2023-03-07T06:02:16.965Z,48.53
2023-03-07T06:04:43.794Z,38.00
2023-03-07T06:07:10.513Z,49.17
2023-03-07T06:09:37.240Z,40.87
2023-03-07T06:12:04.235Z,38.43
2023-03-07T06:14:32.451Z,40.43
2023-03-07T06:16:59.172Z,42.07
2023-03-07T06:19:25.921Z,42.97
2023-03-07T06:21:52.643Z,43.53
2023-03-07T06:24:19.424Z,46.73
2023-03-07T06:26:46.153Z,46.50
2023-03-07T06:29:12.928Z,38.13
2023-03-07T06:31:39.729Z,42.17
2023-03-07T06:34:06.472Z,45.50
2023-03-07T06:36:33.260Z,40.90
2023-03-07T06:39:00.071Z,40.77
2023-03-07T06:41:26.898Z,32.67
2023-03-07T06:43:54.114Z,44.87
2023-03-07T06:46:21.738Z,48.80
2023-03-07T06:48:49.835Z,46.13
2023-03-07T06:51:16.818Z,46.63
2023-03-07T06:53:43.608Z,45.77
2023-03-07T06:56:10.367Z,57.13
2023-03-07T06:58:37.174Z,49.93
2023-03-07T07:01:03.972Z,47.37
2023-03-07T07:03:30.876Z,40.70
2023-03-07T07:05:57.581Z,39.20
2023-03-07T07:08:24.302Z,37.27
2023-03-07T07:10:50.997Z,41.90
2023-03-07T07:13:17.714Z,45.50
2023-03-07T07:15:44.451Z,46.90
2023-03-07T07:18:13.407Z,44.27
2023-03-07T07:20:40.109Z,38.30
2023-03-07T07:23:06.867Z,40.57
2023-03-07T07:25:33.615Z,41.77
2023-03-07T07:28:00.352Z,41.23
2023-03-07T07:30:27.169Z,38.93
2023-03-07T07:32:54.080Z,41.83
2023-03-07T07:35:20.969Z,36.67
2023-03-07T07:37:47.732Z,40.97
2023-03-07T07:40:15.347Z,39.60
2023-03-07T07:42:43.451Z,37.40
2023-03-07T07:45:10.754Z,36.03
2023-03-07T07:47:37.496Z,39.43
2023-03-07T07:50:04.711Z,34.90
2023-03-07T07:52:31.501Z,36.17
2023-03-07T07:54:58.222Z,39.93
2023-03-07T07:57:25.434Z,36.17
2023-03-07T07:59:52.171Z,34.10
2023-03-07T08:02:18.879Z,36.93
2023-03-07T08:04:47.366Z,36.27
2023-03-07T08:07:14.567Z,32.17
2023-03-07T08:09:41.320Z,32.60
2023-03-07T08:12:11.565Z,31.87
2023-03-07T08:14:39.356Z,27.87
2023-03-07T08:17:06.571Z,34.23
2023-03-07T08:19:33.436Z,29.23
2023-03-07T08:22:01.197Z,34.83
2023-03-07T08:24:39.885Z,32.67
2023-03-07T08:27:07.164Z,31.87
2023-03-07T08:29:35.216Z,31.03
2023-03-07T08:32:01.913Z,31.00
2023-03-07T08:34:28.643Z,34.77
2023-03-07T08:36:55.478Z,32.93
2023-03-07T08:39:22.181Z,32.80
2023-03-07T08:41:48.897Z,31.17
2023-03-07T08:44:15.646Z,36.20
2023-03-07T08:46:42.469Z,33.73
2023-03-07T08:49:09.229Z,44.13
2023-03-07T08:51:36.040Z,42.47
2023-03-07T08:54:02.739Z,35.13
2023-03-07T08:56:29.440Z,37.43
2023-03-07T08:58:56.214Z,28.97
2023-03-07T09:01:23.012Z,27.10
2023-03-07T09:03:49.968Z,30.60
2023-03-07T09:06:21.249Z,29.30
2023-03-07T09:08:49.096Z,27.63
2023-03-07T09:11:17.523Z,28.33
2023-03-07T09:13:51.821Z,31.97
2023-03-07T09:16:20.360Z,34.40
2023-03-07T09:18:47.250Z,29.77
2023-03-07T09:21:14.120Z,30.20
2023-03-07T09:23:42.951Z,33.27
2023-03-07T09:26:10.283Z,32.03
2023-03-07T09:28:37.071Z,37.87
2023-03-07T09:31:08.409Z,36.97
2023-03-07T09:33:35.202Z,34.60
2023-03-07T09:36:06.504Z,36.47
2023-03-07T09:38:33.567Z,39.50
2023-03-07T09:41:33.893Z,36.60
2023-03-07T09:44:31.771Z,42.97
2023-03-07T09:47:19.681Z,31.30
2023-03-07T09:49:48.927Z,47.80
2023-03-07T09:52:21.838Z,42.70
2023-03-07T09:55:01.951Z,49.30
2023-03-07T09:57:34.393Z,37.80
2023-03-07T10:00:21.605Z,38.87
2023-03-07T10:03:16.471Z,43.67
2023-03-07T10:05:50.954Z,31.07
2023-03-07T10:08:27.392Z,34.57
2023-03-07T10:11:02.936Z,38.60
2023-03-07T10:14:02.267Z,37.13
2023-03-07T10:16:42.876Z,39.60
2023-03-07T10:19:25.184Z,41.63
2023-03-07T10:22:03.582Z,37.17
2023-03-07T10:24:39.094Z,34.80
2023-03-07T10:27:08.522Z,45.13
2023-03-07T10:29:58.496Z,36.27
2023-03-07T10:32:35.331Z,43.70
2023-03-07T10:35:15.317Z,41.30
2023-03-07T10:37:50.998Z,41.93
2023-03-07T10:40:23.276Z,42.43
2023-03-07T10:42:50.350Z,45.20
2023-03-07T10:45:17.523Z,44.13
2023-03-07T10:47:44.287Z,42.63
2023-03-07T10:50:33.890Z,46.23
2023-03-07T10:53:03.461Z,43.93
2023-03-07T10:55:43.231Z,42.47
2023-03-07T10:58:26.572Z,43.83
2023-03-07T11:01:02.178Z,39.40
2023-03-07T11:03:55.414Z,41.13
2023-03-07T11:06:41.580Z,35.13
2023-03-07T11:09:19.383Z,40.00
2023-03-07T11:11:52.554Z,40.63
2023-03-07T11:14:21.812Z,31.63
2023-03-07T11:17:02.261Z,37.10
2023-03-07T11:19:36.996Z,42.80
2023-03-07T11:22:25.577Z,33.67
2023-03-07T11:24:58.141Z,32.57
2023-03-07T11:27:35.854Z,32.60
2023-03-07T11:30:41.283Z,35.73
2023-03-07T11:33:17.761Z,37.33
2023-03-07T11:36:08.154Z,33.33
2023-03-07T11:38:57.164Z,32.83
2023-03-07T11:41:30.844Z,31.80
2023-03-07T11:43:57.555Z,31.23
2023-03-07T11:46:39.154Z,32.57
2023-03-07T11:49:44.961Z,31.70
2023-03-07T11:52:12.243Z,29.93
2023-03-07T11:54:47.327Z,31.43
2023-03-07T11:57:41.689Z,28.57
2023-03-07T12:00:32.459Z,29.47
2023-03-07T12:03:17.176Z,27.00
2023-03-07T12:06:11.709Z,28.93
2023-03-07T12:09:03.290Z,27.53
2023-03-07T12:11:47.803Z,23.73
2023-03-07T12:14:20.436Z,27.23
2023-03-07T12:16:55.256Z,27.77
2023-03-07T12:19:33.670Z,30.20
2023-03-07T12:22:21.381Z,28.23
2023-03-07T12:25:00.692Z,24.97
2023-03-07T12:27:45.153Z,24.43
2023-03-07T12:30:24.911Z,25.10
2023-03-07T12:32:52.377Z,25.03
2023-03-07T12:35:40.108Z,26.67
2023-03-07T12:38:29.720Z,24.30
2023-03-07T12:41:13.805Z,24.10
2023-03-07T12:43:47.528Z,25.20
2023-03-07T12:46:20.312Z,24.13
2023-03-07T12:49:20.061Z,28.53
2023-03-07T12:51:53.241Z,26.73
2023-03-07T12:54:43.322Z,24.60
2023-03-07T12:57:50.929Z,23.50
2023-03-07T13:00:21.221Z,26.57
2023-03-07T13:02:58.277Z,23.17
2023-03-07T13:05:25.428Z,23.23
2023-03-07T13:07:53.706Z,24.50
2023-03-07T13:10:23.094Z,26.73
2023-03-07T13:12:51.984Z,25.43
2023-03-07T13:15:38.637Z,30.70
2023-03-07T13:18:24.985Z,25.70
2023-03-07T13:21:12.671Z,22.40
2023-03-07T13:23:39.861Z,22.47
2023-03-07T13:26:10.731Z,22.17
2023-03-07T13:28:43.788Z,25.57
2023-03-07T13:31:11.960Z,24.67
2023-03-07T13:33:38.729Z,23.43
2023-03-07T13:36:38.726Z,26.27
2023-03-07T13:39:35.835Z,21.60
2023-03-07T13:42:02.609Z,23.50
2023-03-07T13:44:40.874Z,23.17
2023-03-07T13:47:44.681Z,22.70
2023-03-07T13:50:35.618Z,19.47
2023-03-07T13:53:08.116Z,19.93
2023-03-07T13:55:46.442Z,18.97
2023-03-07T13:58:36.073Z,18.40
2023-03-07T14:01:15.093Z,18.60
2023-03-07T14:03:57.551Z,16.83
2023-03-07T14:06:37.015Z,16.30
2023-03-07T14:09:06.359Z,18.00
2023-03-07T14:12:09.575Z,18.97
2023-03-07T14:15:15.152Z,20.60
2023-03-07T14:17:57.073Z,15.20
2023-03-07T14:20:33.971Z,17.07
2023-03-07T14:23:09.339Z,17.10
2023-03-07T14:25:42.291Z,16.73
2023-03-07T14:28:28.771Z,14.60
2023-03-07T14:30:59.590Z,16.73
2023-03-07T14:33:33.988Z,19.10
2023-03-07T14:36:02.302Z,16.43
2023-03-07T14:38:29.243Z,17.27
2023-03-07T14:41:08.290Z,15.73
2023-03-07T14:43:51.317Z,16.27
2023-03-07T14:46:29.099Z,18.10
2023-03-07T14:49:08.034Z,20.57
2023-03-07T14:51:41.277Z,17.33
2023-03-07T14:54:15.866Z,18.40
2023-03-07T14:56:43.253Z,17.00
2023-03-07T14:59:26.109Z,17.80
2023-03-07T15:01:54.824Z,16.47
2023-03-07T15:04:30.307Z,20.00
2023-03-07T15:07:04.431Z,17.00
2023-03-07T15:09:32.321Z,14.00
2023-03-07T15:12:15.819Z,19.40
2023-03-07T15:14:51.666Z,20.53
2023-03-07T15:17:24.101Z,16.60
2023-03-07T15:19:57.146Z,16.90
2023-03-07T15:22:30.874Z,19.47
2023-03-07T15:24:57.970Z,15.23
2023-03-07T15:27:30.629Z,19.07
2023-03-07T15:29:59.546Z,16.87
2023-03-07T15:32:38.306Z,16.83
2023-03-07T15:35:07.865Z,19.80
2023-03-07T15:37:50.137Z,14.73
2023-03-07T15:40:25.298Z,18.93
2023-03-07T15:42:55.664Z,16.07
2023-03-07T15:45:36.573Z,15.97
2023-03-07T15:48:24.260Z,13.80
2023-03-07T15:51:04.708Z,16.40
2023-03-07T15:53:34.636Z,20.77
2023-03-07T15:56:05.166Z,17.70
2023-03-07T15:58:42.517Z,15.87
2023-03-07T16:01:22.990Z,20.77
2023-03-07T16:03:56.541Z,21.87
2023-03-07T16:06:38.483Z,20.73
2023-03-07T16:09:06.511Z,21.80
2023-03-07T16:11:34.498Z,18.43
2023-03-07T16:14:02.214Z,17.57
2023-03-07T16:16:30.987Z,16.67
2023-03-07T16:18:58.278Z,19.20
2023-03-07T16:21:25.979Z,18.30
2023-03-07T16:23:52.809Z,17.90
2023-03-07T16:26:21.746Z,19.37
2023-03-07T16:28:53.444Z,19.87
2023-03-07T16:31:21.378Z,21.03
2023-03-07T16:33:48.667Z,20.67
2023-03-07T16:36:16.282Z,20.10
2023-03-07T16:38:43.790Z,17.47
2023-03-07T16:41:22.029Z,19.50
2023-03-07T16:43:56.919Z,15.57
2023-03-07T16:46:24.907Z,20.90
2023-03-07T16:48:51.797Z,20.83
2023-03-07T16:51:21.392Z,17.63
2023-03-07T16:53:50.159Z,16.13
2023-03-07T16:56:25.291Z,18.73
2023-03-07T16:58:53.051Z,19.17
2023-03-07T17:01:19.948Z,18.07
2023-03-07T17:03:46.710Z,18.00
2023-03-07T17:06:16.260Z,18.20
2023-03-07T17:08:44.020Z,18.07
2023-03-07T17:11:29.175Z,24.57
2023-03-07T17:14:02.196Z,21.47
2023-03-07T17:16:29.640Z,25.10
2023-03-07T17:18:56.328Z,21.73
2023-03-07T17:21:23.447Z,23.43
2023-03-07T17:23:50.352Z,21.57
2023-03-07T17:26:23.707Z,21.57
2023-03-07T17:28:51.311Z,20.40
2023-03-07T17:31:18.122Z,26.27
2023-03-07T17:33:44.862Z,21.13
2023-03-07T17:36:11.872Z,24.40
2023-03-07T17:38:38.690Z,24.27
2023-03-07T17:41:05.572Z,21.87
2023-03-07T17:43:33.497Z,21.30
2023-03-07T17:46:00.744Z,21.23
2023-03-07T17:48:27.776Z,22.37
2023-03-07T17:50:54.485Z,25.13
2023-03-07T17:53:21.228Z,24.63
2023-03-07T17:55:47.984Z,26.40
2023-03-07T17:58:14.785Z,24.17
2023-03-07T18:00:41.498Z,21.83
2023-03-07T18:03:08.281Z,19.83
2023-03-07T18:05:35.100Z,19.20
2023-03-07T18:08:01.890Z,22.77
2023-03-07T18:10:28.598Z,21.77
2023-03-07T18:12:55.363Z,22.67
2023-03-07T18:15:23.110Z,21.10
2023-03-07T18:17:50.377Z,21.23
2023-03-07T18:20:21.610Z,16.37
2023-03-07T18:22:49.216Z,20.93
2023-03-07T18:25:18.034Z,19.43
2023-03-07T18:27:45.887Z,17.63
2023-03-07T18:30:13.972Z,15.13
2023-03-07T18:32:40.734Z,20.37
2023-03-07T18:35:07.930Z,22.23
2023-03-07T18:37:34.701Z,19.17
2023-03-07T18:40:01.552Z,20.90
2023-03-07T18:42:28.408Z,19.30
2023-03-07T18:44:55.179Z,18.63
2023-03-07T18:47:22.049Z,17.33
2023-03-07T18:49:51.190Z,16.47
2023-03-07T18:52:18.697Z,17.03
2023-03-07T18:54:45.614Z,17.30
2023-03-07T18:57:12.332Z,15.00
2023-03-07T18:59:39.050Z,14.57
2023-03-07T19:02:05.801Z,17.70
2023-03-07T19:04:32.521Z,17.30
2023-03-07T19:07:00.614Z,16.97
2023-03-07T19:09:27.794Z,20.53
2023-03-07T19:11:54.570Z,21.37
2023-03-07T19:14:21.445Z,18.37
2023-03-07T19:16:48.352Z,18.97
2023-03-07T19:19:15.169Z,20.67
2023-03-07T19:21:42.036Z,15.57
2023-03-07T19:24:11.357Z,17.57
2023-03-07T19:26:38.201Z,16.23
2023-03-07T19:29:05.024Z,16.20
2023-03-07T19:31:32.669Z,24.47
2023-03-07T19:34:03.265Z,17.37
2023-03-07T19:36:32.090Z,18.47
2023-03-07T19:39:02.212Z,16.60
2023-03-07T19:41:30.846Z,19.60
2023-03-07T19:43:59.451Z,15.90
2023-03-07T19:46:26.857Z,13.87
2023-03-07T19:48:54.043Z,15.07
2023-03-07T19:51:26.038Z,13.23
2023-03-07T19:53:56.990Z,16.67
2023-03-07T19:56:29.959Z,19.47
2023-03-07T19:58:58.570Z,17.40
2023-03-07T20:01:26.402Z,13.60
2023-03-07T20:03:54.080Z,16.63
2023-03-07T20:06:29.687Z,15.17
2023-03-07T20:08:57.654Z,13.70
2023-03-07T20:11:35.674Z,13.67
2023-03-07T20:14:05.358Z,15.00
2023-03-07T20:16:34.933Z,12.10
2023-03-07T20:19:04.228Z,12.67
2023-03-07T20:21:32.235Z,14.03
2023-03-07T20:23:59.891Z,12.10
2023-03-07T20:26:31.593Z,12.83
2023-03-07T20:28:59.921Z,12.53
2023-03-07T20:31:27.870Z,11.70
2023-03-07T20:33:57.147Z,12.13
2023-03-07T20:36:35.084Z,11.03
2023-03-07T20:39:07.606Z,9.27
2023-03-07T20:41:34.832Z,10.00
2023-03-07T20:44:04.272Z,9.93
2023-03-07T20:46:31.758Z,11.20
2023-03-07T20:48:59.634Z,10.07
2023-03-07T20:51:32.347Z,11.07
2023-03-07T20:54:12.710Z,9.73
2023-03-07T20:56:40.211Z,7.70
2023-03-07T20:59:07.970Z,10.37
2023-03-07T21:01:35.926Z,10.10
2023-03-07T21:04:08.202Z,7.03
2023-03-07T21:06:36.356Z,8.83
2023-03-07T21:09:06.367Z,11.67
2023-03-07T21:11:33.255Z,11.53
2023-03-07T21:14:00.124Z,9.73
2023-03-07T21:16:28.429Z,9.33
2023-03-07T21:19:01.725Z,11.50
2023-03-07T21:21:30.039Z,7.53
2023-03-07T21:23:56.823Z,11.43
2023-03-07T21:26:29.591Z,9.77
2023-03-07T21:28:57.544Z,10.30
2023-03-07T21:31:29.524Z,9.83
2023-03-07T21:33:58.784Z,9.43
2023-03-07T21:36:27.222Z,10.53
2023-03-07T21:38:54.842Z,11.93
2023-03-07T21:41:24.877Z,10.10
2023-03-07T21:43:53.039Z,13.73
2023-03-07T21:46:20.206Z,8.93
2023-03-07T21:48:47.206Z,10.83
2023-03-07T21:51:14.043Z,9.07
2023-03-07T21:53:41.083Z,9.13
2023-03-07T21:56:13.165Z,10.10
2023-03-07T21:58:40.683Z,11.97
2023-03-07T22:01:12.961Z,11.43
2023-03-07T22:03:40.098Z,6.97
2023-03-07T22:06:09.028Z,5.40
2023-03-07T22:08:36.687Z,4.27
2023-03-07T22:11:05.574Z,4.63
2023-03-07T22:13:34.488Z,3.33
2023-03-07T22:16:04.786Z,3.27
2023-03-07T22:18:33.049Z,3.00
2023-03-07T22:21:05.193Z,1.97
2023-03-07T22:23:31.916Z,3.60
2023-03-07T22:26:06.274Z,4.00
2023-03-07T22:28:33.305Z,6.07
2023-03-07T22:31:08.961Z,4.63
2023-03-07T22:33:36.166Z,5.03
2023-03-07T22:36:05.300Z,5.27
2023-03-07T22:38:32.345Z,5.77
2023-03-07T22:41:15.089Z,4.20
2023-03-07T22:43:42.239Z,4.90
2023-03-07T22:46:09.865Z,13.13
2023-03-07T22:48:37.899Z,4.60
2023-03-07T22:51:05.283Z,5.47
2023-03-07T22:53:32.827Z,5.97
2023-03-07T22:56:00.278Z,4.63
2023-03-07T22:58:30.718Z,5.83
2023-03-07T23:00:57.474Z,4.73
2023-03-07T23:03:24.474Z,6.60
2023-03-07T23:05:51.420Z,5.67
2023-03-07T23:08:18.240Z,4.50
2023-03-07T23:10:45.075Z,4.23
2023-03-07T23:13:11.924Z,5.00
2023-03-07T23:15:41.975Z,5.80
2023-03-07T23:18:09.088Z,6.73
2023-03-07T23:20:38.990Z,8.33
2023-03-07T23:23:06.260Z,5.90
2023-03-07T23:25:33.231Z,7.57
2023-03-07T23:27:59.978Z,7.20
2023-03-07T23:30:26.698Z,4.97
2023-03-07T23:32:54.966Z,4.70
2023-03-07T23:35:21.693Z,5.93
2023-03-07T23:37:48.400Z,4.93
2023-03-07T23:40:15.149Z,7.53
2023-03-07T23:42:41.862Z,10.03
2023-03-07T23:45:09.112Z,7.23
2023-03-07T23:47:35.887Z,5.37
2023-03-07T23:50:03.048Z,5.87
2023-03-07T23:52:29.829Z,6.17
2023-03-07T23:54:56.595Z,6.03
2023-03-07T23:57:23.801Z,5.43
2023-03-07T23:59:50.730Z,7.50
